Time;durP1;ratioP1;P1;durP2;ratioP2;P2;SDS_P1;SDS_P2;PMS_P1;PMS_P2;Temp;Humidity;BMP_temperature;BMP_pressure;BME280_temperature;BME280_humidity;BME280_pressure;Samples;Min_cycle;Max_cycle;Signal;HPM_P1;HPM_P2
2022/12/24 00:00:31;;;;;;;18.48;16.15;;;21.90;64.10;;;;;;5030173;28;20068;-88
2022/12/24 00:02:56;;;;;;;17.40;15.35;;;21.80;64.20;;;;;;4997371;28;20494;-87
2022/12/24 00:05:22;;;;;;;16.95;14.95;;;21.80;64.30;;;;;;5032397;28;20079;-87
2022/12/24 00:07:48;;;;;;;19.98;16.10;;;21.80;64.50;;;;;;5014648;28;20034;-88
2022/12/24 00:10:13;;;;;;;19.77;16.20;;;21.70;64.60;;;;;;5032538;28;20022;-88
2022/12/24 00:12:39;;;;;;;19.90;15.65;;;21.70;65.70;;;;;;5015494;28;20032;-88
2022/12/24 00:15:05;;;;;;;17.48;15.57;;;21.60;64.70;;;;;;4998394;28;20175;-88
2022/12/24 00:17:31;;;;;;;22.00;16.17;;;21.60;64.90;;;;;;5031068;28;20034;-88
2022/12/24 00:19:56;;;;;;;19.08;14.88;;;21.60;65.00;;;;;;5031850;28;20052;-88
2022/12/24 00:22:22;;;;;;;20.17;15.55;;;21.50;65.00;;;;;;5031286;28;20040;-88
2022/12/24 00:24:48;;;;;;;19.17;15.10;;;21.50;65.20;;;;;;5015007;28;20299;-88
2022/12/24 00:27:13;;;;;;;18.13;14.90;;;21.50;65.30;;;;;;5015597;28;20377;-88
2022/12/24 00:29:39;;;;;;;16.90;14.93;;;21.50;65.50;;;;;;5014992;28;20051;-88
2022/12/24 00:32:08;;;;;;;20.50;14.95;;;21.40;65.50;;;;;;5015094;28;20072;-88
2022/12/24 00:34:38;;;;;;;19.15;15.02;;;21.40;65.70;;;;;;5063775;28;20100;-88
2022/12/24 00:37:05;;;;;;;19.90;15.25;;;21.30;65.80;;;;;;5047809;28;20033;-88
2022/12/24 00:39:31;;;;;;;17.75;15.00;;;21.40;66.00;;;;;;5032703;28;20538;-88
2022/12/24 00:41:56;;;;;;;16.00;13.75;;;21.30;65.90;;;;;;5048282;28;20065;-89
2022/12/24 00:44:22;;;;;;;17.20;14.32;;;21.30;66.00;;;;;;5032424;28;20018;-88
2022/12/24 00:46:48;;;;;;;18.65;13.80;;;21.30;66.20;;;;;;5031374;28;20035;-88
2022/12/24 00:49:13;;;;;;;17.25;13.90;;;21.20;66.20;;;;;;5064821;28;20096;-88
2022/12/24 00:51:39;;;;;;;15.95;14.18;;;21.20;66.20;;;;;;5032431;28;20128;-87
2022/12/24 00:54:05;;;;;;;18.58;13.90;;;21.20;66.40;;;;;;5031260;28;20025;-89
2022/12/24 00:56:30;;;;;;;17.60;14.48;;;21.20;66.40;;;;;;5047917;28;20029;-87
2022/12/24 00:58:56;;;;;;;17.73;14.65;;;21.20;66.50;;;;;;5014442;28;20025;-86
2022/12/24 01:01:22;;;;;;;18.58;13.90;;;21.10;66.50;;;;;;5012545;28;20508;-86
2022/12/24 01:03:48;;;;;;;15.63;13.93;;;21.10;66.60;;;;;;5011367;28;20484;-86
2022/12/24 01:06:18;;;;;;;16.13;13.23;;;21.10;66.70;;;;;;5016653;28;20025;-86
2022/12/24 01:08:44;;;;;;;15.65;13.50;;;21.10;66.70;;;;;;5036963;28;20469;-89
2022/12/24 01:11:10;;;;;;;15.23;13.63;;;21.10;66.90;;;;;;5017746;28;20025;-89
2022/12/24 01:13:36;;;;;;;17.55;14.27;;;21.10;66.90;;;;;;5014730;28;20029;-88
2022/12/24 01:16:02;;;;;;;14.95;12.98;;;21.00;66.90;;;;;;5015323;28;20030;-88
2022/12/24 01:18:28;;;;;;;16.20;13.02;;;21.00;67.00;;;;;;5031481;28;20020;-87
2022/12/24 01:21:01;;;;;;;15.10;12.57;;;21.00;67.10;;;;;;5014744;28;20026;-87
2022/12/24 01:23:27;;;;;;;14.27;12.77;;;21.00;67.20;;;;;;5031576;28;20026;-88
2022/12/24 01:25:53;;;;;;;15.57;13.25;;;21.00;67.20;;;;;;5031489;28;20029;-87
2022/12/24 01:28:19;;;;;;;16.50;12.63;;;21.00;67.30;;;;;;5015046;28;20018;-86
2022/12/24 01:30:45;;;;;;;14.90;12.65;;;21.00;67.40;;;;;;5031245;28;20021;-86
2022/12/24 01:33:11;;;;;;;14.10;12.52;;;21.00;67.40;;;;;;5031213;28;20041;-86
2022/12/24 01:35:40;;;;;;;13.98;12.32;;;21.00;67.50;;;;;;5014991;28;20052;-86
2022/12/24 01:38:06;;;;;;;15.20;12.73;;;20.90;67.60;;;;;;5031308;28;20440;-86
2022/12/24 01:43:22;;;;;;;13.98;12.50;;;20.90;67.70;;;;;;5032458;28;20060;-86
2022/12/24 01:45:56;;;;;;;13.77;11.93;;;20.90;67.70;;;;;;5032413;28;20025;-85
2022/12/24 01:48:29;;;;;;;15.02;12.45;;;20.90;67.70;;;;;;5014766;28;20030;-85
2022/12/24 01:51:23;;;;;;;14.18;12.15;;;20.90;67.80;;;;;;5031204;28;20053;-87
2022/12/24 01:53:57;;;;;;;12.75;11.43;;;20.90;67.90;;;;;;5023792;28;20381;-86
2022/12/24 01:56:23;;;;;;;13.10;11.75;;;20.80;67.90;;;;;;5031024;28;20025;-85
2022/12/24 01:58:51;;;;;;;13.23;11.80;;;20.80;67.90;;;;;;5031134;28;20079;-86
2022/12/24 02:01:17;;;;;;;14.40;12.50;;;20.80;68.00;;;;;;5030935;28;20495;-86
2022/12/24 02:03:43;;;;;;;12.43;10.95;;;20.80;68.00;;;;;;5032162;28;20028;-86
2022/12/24 02:06:10;;;;;;;15.18;12.15;;;20.80;68.00;;;;;;5032266;28;20030;-87
2022/12/24 02:08:38;;;;;;;12.65;11.25;;;20.80;68.00;;;;;;5031336;28;20018;-88
2022/12/24 02:11:16;;;;;;;13.30;11.90;;;20.80;68.10;;;;;;5031009;28;20029;-87
2022/12/24 02:13:44;;;;;;;13.32;11.63;;;20.80;68.10;;;;;;5030900;28;20407;-86
2022/12/24 02:16:34;;;;;;;12.77;11.15;;;20.80;68.20;;;;;;5030819;28;20113;-87
2022/12/24 02:19:00;;;;;;;13.88;11.20;;;20.80;68.20;;;;;;5032038;28;20494;-86
2022/12/24 02:21:47;;;;;;;12.95;11.40;;;20.70;68.30;;;;;;5032004;28;20084;-86
2022/12/24 02:24:51;;;;;;;15.95;11.77;;;20.70;68.50;;;;;;5030482;28;20480;-87
2022/12/24 02:27:35;;;;;;;12.13;10.63;;;20.70;68.50;;;;;;4994156;28;20014;-87
2022/12/24 02:30:20;;;;;;;12.38;10.60;;;20.70;68.50;;;;;;4993981;28;20034;-87
2022/12/24 02:32:54;;;;;;;11.10;9.98;;;20.70;68.60;;;;;;4977705;28;20077;-87
2022/12/24 02:35:31;;;;;;;11.57;10.38;;;20.70;68.60;;;;;;4993908;28;20117;-88
2022/12/24 02:38:21;;;;;;;12.98;10.40;;;20.70;68.60;;;;;;4977931;28;20023;-88
2022/12/24 02:40:56;;;;;;;12.55;10.23;;;20.70;68.60;;;;;;4977682;28;20489;-88
2022/12/24 02:43:24;;;;;;;11.50;9.75;;;20.70;68.60;;;;;;4978036;28;20034;-88
2022/12/24 02:46:00;;;;;;;11.93;10.73;;;20.70;68.70;;;;;;4977706;28;20034;-89
2022/12/24 02:48:26;;;;;;;11.10;10.00;;;20.70;68.80;;;;;;4977486;28;20030;-88
2022/12/24 02:51:05;;;;;;;10.75;9.60;;;20.70;68.60;;;;;;4977562;28;20035;-89
2022/12/24 02:53:32;;;;;;;12.20;10.70;;;20.70;68.70;;;;;;4977412;28;20034;-88
2022/12/24 02:56:26;;;;;;;10.95;9.85;;;20.70;68.70;;;;;;4977719;28;20030;-88
2022/12/24 02:59:03;;;;;;;10.77;9.65;;;20.70;68.70;;;;;;4961278;28;20030;-88
2022/12/24 03:01:38;;;;;;;10.68;9.52;;;20.70;68.80;;;;;;5011079;28;20056;-88
2022/12/24 03:04:40;;;;;;;12.18;10.05;;;20.70;68.90;;;;;;5035028;28;20021;-88
2022/12/24 03:07:10;;;;;;;11.98;9.98;;;20.70;68.80;;;;;;5033789;28;20071;-88
2022/12/24 03:09:49;;;;;;;11.00;9.90;;;20.70;68.90;;;;;;5033619;28;20025;-88
2022/12/24 03:12:18;;;;;;;11.55;9.45;;;20.70;68.80;;;;;;5033819;28;20029;-87
2022/12/24 03:14:43;;;;;;;11.35;9.43;;;20.70;68.90;;;;;;5033731;28;20096;-88
2022/12/24 03:17:09;;;;;;;11.00;9.15;;;20.70;68.90;;;;;;5033600;28;20108;-88
2022/12/24 03:19:35;;;;;;;10.70;9.60;;;20.70;68.90;;;;;;5033746;28;20045;-88
2022/12/24 03:22:02;;;;;;;10.27;9.13;;;20.70;68.90;;;;;;5034507;28;20411;-88
2022/12/24 03:24:28;;;;;;;10.75;9.15;;;20.70;68.90;;;;;;5016705;28;20021;-88
2022/12/24 03:26:53;;;;;;;10.13;9.05;;;20.60;68.90;;;;;;5033379;28;20075;-88
2022/12/24 03:29:19;;;;;;;10.55;9.45;;;20.60;69.00;;;;;;5016795;28;20476;-87
2022/12/24 03:31:47;;;;;;;9.65;8.43;;;20.70;69.00;;;;;;5033552;28;20067;-88
2022/12/24 03:34:13;;;;;;;10.02;8.57;;;20.60;69.00;;;;;;5033252;28;20026;-87
2022/12/24 03:36:38;;;;;;;10.85;9.35;;;20.60;69.10;;;;;;5033101;28;20491;-88
2022/12/24 03:39:04;;;;;;;9.82;8.85;;;20.60;69.10;;;;;;5033097;28;20040;-87
2022/12/24 03:41:30;;;;;;;10.05;8.95;;;20.70;69.10;;;;;;5033189;28;20028;-87
2022/12/24 03:43:56;;;;;;;10.07;9.07;;;20.60;69.10;;;;;;5033182;28;20027;-87
2022/12/24 03:46:22;;;;;;;11.18;8.73;;;20.60;69.20;;;;;;5034091;28;20369;-86
2022/12/24 03:48:47;;;;;;;12.98;9.00;;;20.60;69.20;;;;;;5032954;28;20049;-87
2022/12/24 03:51:20;;;;;;;9.55;8.63;;;20.60;69.30;;;;;;5032747;28;20030;-86
2022/12/24 03:53:46;;;;;;;10.63;8.60;;;20.60;69.30;;;;;;5032990;28;20017;-87
2022/12/24 03:56:12;;;;;;;9.82;8.75;;;20.60;70.30;;;;;;5034001;28;20029;-86
2022/12/24 03:58:38;;;;;;;10.52;8.15;;;20.60;69.30;;;;;;5032814;28;20028;-88
2022/12/24 04:01:04;;;;;;;9.27;8.35;;;20.60;69.30;;;;;;5033612;28;20519;-86
2022/12/24 04:03:30;;;;;;;9.23;8.18;;;20.60;69.30;;;;;;5032512;28;20128;-87
2022/12/24 04:06:05;;;;;;;9.40;8.50;;;20.50;69.30;;;;;;5015721;28;20435;-86
2022/12/24 04:08:31;;;;;;;10.07;8.45;;;20.50;70.40;;;;;;5032767;28;20518;-87
2022/12/24 04:10:56;;;;;;;9.95;8.13;;;20.60;69.40;;;;;;5032570;28;20025;-87
2022/12/24 04:13:22;;;;;;;9.10;8.10;;;20.50;69.30;;;;;;5033488;28;20068;-87
2022/12/24 04:16:02;;;;;;;10.13;8.52;;;20.50;69.30;;;;;;5032544;28;20040;-88
2022/12/24 04:18:28;;;;;;;11.68;8.68;;;20.50;69.40;;;;;;5033771;28;20025;-87
2022/12/24 04:20:53;;;;;;;8.27;7.47;;;20.50;69.50;;;;;;5032170;28;20029;-87
2022/12/24 04:23:19;;;;;;;9.10;7.95;;;20.50;69.50;;;;;;5032376;28;20451;-87
2022/12/24 04:25:45;;;;;;;10.10;8.20;;;20.50;69.50;;;;;;5032447;28;20022;-88
2022/12/24 04:28:11;;;;;;;8.77;7.90;;;20.50;69.60;;;;;;5033402;28;21138;-88
2022/12/24 04:30:38;;;;;;;8.25;7.40;;;20.50;69.70;;;;;;5032327;28;20056;-88
2022/12/24 04:33:03;;;;;;;8.85;7.95;;;20.50;69.70;;;;;;5032189;28;20018;-88
2022/12/24 04:35:29;;;;;;;9.75;7.78;;;20.50;69.70;;;;;;5031969;28;20037;-88
2022/12/24 04:37:55;;;;;;;9.27;7.75;;;20.50;69.70;;;;;;5032144;28;20101;-87
2022/12/24 04:40:20;;;;;;;9.43;7.97;;;20.50;69.90;;;;;;5032099;28;20033;-87
2022/12/24 04:42:46;;;;;;;8.65;7.75;;;20.50;69.90;;;;;;5015622;28;20041;-87
2022/12/24 04:45:12;;;;;;;8.55;7.25;;;20.50;69.90;;;;;;5031877;28;20051;-87
2022/12/24 04:47:37;;;;;;;8.57;7.57;;;20.50;70.00;;;;;;5031852;28;20053;-87
2022/12/24 04:50:03;;;;;;;8.10;7.07;;;20.50;70.00;;;;;;5031684;28;20032;-88
2022/12/24 04:52:29;;;;;;;8.27;7.40;;;20.50;70.00;;;;;;5033244;28;20025;-87
2022/12/24 04:54:54;;;;;;;8.02;7.22;;;20.50;70.00;;;;;;5033012;28;20060;-87
2022/12/24 04:57:20;;;;;;;8.45;7.50;;;20.50;70.10;;;;;;5031940;28;20034;-87
2022/12/24 04:59:46;;;;;;;8.27;7.47;;;20.50;70.10;;;;;;5015479;28;20037;-87
2022/12/24 05:02:11;;;;;;;8.15;7.00;;;20.50;70.20;;;;;;5015094;28;20079;-87
2022/12/24 05:04:37;;;;;;;7.20;6.50;;;20.40;70.20;;;;;;5031753;28;20456;-87
2022/12/24 05:07:03;;;;;;;8.27;7.47;;;20.50;70.30;;;;;;5031550;28;20499;-88
2022/12/24 05:09:28;;;;;;;7.95;7.13;;;20.40;70.20;;;;;;5015256;28;20036;-87
2022/12/24 05:11:54;;;;;;;7.85;6.50;;;20.50;70.30;;;;;;5030641;28;20026;-84
2022/12/24 05:14:20;;;;;;;7.93;7.13;;;20.40;70.20;;;;;;5032301;28;20033;-86
2022/12/24 05:16:45;;;;;;;7.18;6.47;;;20.40;70.30;;;;;;5031434;28;20029;-87
2022/12/24 05:19:11;;;;;;;6.95;6.30;;;20.40;70.40;;;;;;5031335;28;20029;-86
2022/12/24 05:21:37;;;;;;;7.65;6.85;;;20.40;70.50;;;;;;5014906;28;20507;-88
2022/12/24 05:26:55;;;;;;;7.10;6.40;;;20.40;70.50;;;;;;5031803;28;20399;-88
2022/12/24 05:29:20;;;;;;;7.72;6.93;;;20.40;70.60;;;;;;5014885;28;20044;-87
2022/12/24 05:31:46;;;;;;;8.32;6.40;;;20.40;70.70;;;;;;5031546;28;20488;-87
2022/12/24 05:34:12;;;;;;;9.50;6.78;;;20.40;70.70;;;;;;5031111;28;20025;-87
2022/12/24 05:36:38;;;;;;;7.68;6.88;;;20.40;70.70;;;;;;5031551;28;20040;-87
2022/12/24 05:39:04;;;;;;;8.57;7.03;;;20.40;70.80;;;;;;5032733;28;20025;-87
2022/12/24 05:41:29;;;;;;;8.57;6.70;;;20.40;70.80;;;;;;5031253;28;20092;-85
2022/12/24 05:43:55;;;;;;;7.43;6.63;;;20.40;70.80;;;;;;5031527;28;20072;-86
2022/12/24 05:46:21;;;;;;;7.72;6.88;;;20.40;71.00;;;;;;5032384;28;20025;-86
2022/12/24 05:48:47;;;;;;;7.07;6.38;;;20.40;70.90;;;;;;5031161;28;20399;-86
2022/12/24 05:51:14;;;;;;;8.00;5.97;;;20.40;70.90;;;;;;5032481;28;20032;-86
2022/12/24 05:53:39;;;;;;;7.10;6.28;;;20.40;70.90;;;;;;5031145;28;20033;-86
2022/12/24 05:56:07;;;;;;;8.48;6.32;;;20.40;70.90;;;;;;5031044;28;20026;-85
2022/12/24 05:58:33;;;;;;;7.35;6.63;;;20.40;70.90;;;;;;5032370;28;20105;-85
2022/12/24 06:01:00;;;;;;;6.45;5.75;;;20.40;70.90;;;;;;5032935;28;20121;-86
2022/12/24 06:03:25;;;;;;;6.82;6.22;;;20.40;71.00;;;;;;5034777;28;20029;-86
2022/12/24 06:06:02;;;;;;;6.85;6.15;;;20.40;70.90;;;;;;5018247;28;20029;-85
2022/12/24 06:08:28;;;;;;;6.40;5.80;;;20.40;70.90;;;;;;5034684;28;20549;-87
2022/12/24 06:10:57;;;;;;;7.18;6.10;;;20.40;71.00;;;;;;5018216;28;20052;-86
2022/12/24 06:13:24;;;;;;;7.57;6.40;;;20.40;70.90;;;;;;5018251;28;20025;-88
2022/12/24 06:15:50;;;;;;;6.20;5.60;;;20.40;71.00;;;;;;5034568;28;20026;-87
2022/12/24 06:18:15;;;;;;;6.18;5.57;;;20.40;71.00;;;;;;5034197;28;20022;-87
2022/12/24 06:20:41;;;;;;;7.32;6.03;;;20.40;71.10;;;;;;5018442;28;20510;-88
2022/12/24 06:23:07;;;;;;;6.70;6.05;;;20.40;71.00;;;;;;5017989;28;20041;-89
2022/12/24 06:25:33;;;;;;;7.38;5.85;;;20.40;71.00;;;;;;5034584;28;20476;-88
2022/12/24 06:27:59;;;;;;;6.65;5.72;;;20.40;71.10;;;;;;5018089;28;20021;-86
2022/12/24 06:30:24;;;;;;;6.38;5.70;;;20.40;71.10;;;;;;5035502;28;20400;-87
2022/12/24 06:32:50;;;;;;;6.20;5.60;;;20.40;71.10;;;;;;5017654;28;20504;-86
2022/12/24 06:35:15;;;;;;;6.53;5.47;;;20.40;71.10;;;;;;5034107;28;20511;-87
2022/12/24 06:37:41;;;;;;;6.50;5.55;;;20.40;71.20;;;;;;5034290;28;20033;-87
2022/12/24 06:40:07;;;;;;;7.82;5.80;;;20.40;71.20;;;;;;5001274;28;20029;-87
2022/12/24 06:42:33;;;;;;;6.22;5.63;;;20.40;71.10;;;;;;5017753;28;20038;-87
2022/12/24 06:44:59;;;;;;;6.43;5.82;;;20.40;71.20;;;;;;5017758;28;20097;-87
2022/12/24 06:47:24;;;;;;;5.68;5.13;;;20.40;71.20;;;;;;5016541;28;20049;-89
2022/12/24 06:49:50;;;;;;;6.03;5.40;;;20.40;71.20;;;;;;5033024;28;20022;-88
2022/12/24 06:52:16;;;;;;;6.00;5.40;;;20.40;71.30;;;;;;4990164;28;20033;-88
2022/12/24 06:54:41;;;;;;;8.30;5.47;;;20.40;71.30;;;;;;5034013;28;20398;-89
2022/12/24 06:57:07;;;;;;;6.20;5.60;;;20.40;71.40;;;;;;5017589;28;20460;-88
2022/12/24 06:59:33;;;;;;;7.78;5.18;;;20.40;71.40;;;;;;5033792;28;20022;-89
2022/12/24 07:01:58;;;;;;;7.05;4.88;;;20.40;71.40;;;;;;5017111;28;20140;-89
2022/12/24 07:04:24;;;;;;;6.75;5.30;;;20.40;71.40;;;;;;5033633;28;20021;-89
2022/12/24 07:06:49;;;;;;;5.85;5.22;;;20.40;71.40;;;;;;5033626;28;20021;-89
2022/12/24 07:09:15;;;;;;;6.47;5.50;;;20.40;71.40;;;;;;5035062;28;20021;-89
2022/12/24 07:11:41;;;;;;;6.75;5.32;;;20.40;71.40;;;;;;5016806;28;20025;-88
2022/12/24 07:14:07;;;;;;;5.78;5.15;;;20.40;71.40;;;;;;5032333;28;20041;-89
2022/12/24 07:16:33;;;;;;;7.85;4.90;;;20.40;71.50;;;;;;5013216;28;20030;-89
2022/12/24 07:18:59;;;;;;;6.32;5.00;;;20.40;71.50;;;;;;5030184;28;20500;-88
2022/12/24 07:21:24;;;;;;;7.13;4.97;;;20.40;71.50;;;;;;5046448;28;20026;-88
2022/12/24 07:23:50;;;;;;;5.45;4.72;;;20.40;71.50;;;;;;5026468;28;20515;-88
2022/12/24 07:26:16;;;;;;;6.25;5.13;;;20.40;71.50;;;;;;5032897;28;20410;-87
2022/12/24 07:28:41;;;;;;;5.03;4.53;;;20.40;71.60;;;;;;5034098;28;20452;-87
2022/12/24 07:31:07;;;;;;;5.05;4.53;;;20.40;71.50;;;;;;5034272;28;20504;-88
2022/12/24 07:33:32;;;;;;;5.70;5.15;;;20.40;71.60;;;;;;5032857;28;20091;-87
2022/12/24 07:36:04;;;;;;;5.32;4.82;;;20.40;71.50;;;;;;5032544;28;20052;-88
2022/12/24 07:38:29;;;;;;;5.35;4.85;;;20.40;71.50;;;;;;5017236;28;20113;-88
2022/12/24 07:40:55;;;;;;;6.95;4.70;;;20.40;72.60;;;;;;5032668;28;20112;-88
2022/12/24 07:43:21;;;;;;;7.05;4.82;;;20.40;71.70;;;;;;5032019;28;20026;-83
2022/12/24 07:45:47;;;;;;;4.03;3.63;;;20.40;71.30;;;;;;5032724;28;20028;-80
2022/12/24 07:48:12;;;;;;;4.95;4.00;;;20.40;70.80;;;;;;5032548;28;20492;-85
2022/12/24 07:50:38;;;;;;;4.68;4.18;;;20.40;70.70;;;;;;5032158;28;20480;-84
2022/12/24 07:53:03;;;;;;;4.38;3.50;;;20.40;70.20;;;;;;5032314;28;20025;-85
2022/12/24 07:55:29;;;;;;;3.92;3.30;;;20.40;69.80;;;;;;5032370;28;20052;-81
2022/12/24 07:57:55;;;;;;;4.43;3.08;;;20.30;69.30;;;;;;5033454;28;20025;-81
2022/12/24 08:00:20;;;;;;;3.42;3.13;;;20.30;69.10;;;;;;5033113;28;20045;-81
2022/12/24 08:02:46;;;;;;;3.80;3.03;;;20.30;68.90;;;;;;5032057;28;20030;-81
2022/12/24 08:05:12;;;;;;;4.50;3.17;;;20.30;68.80;;;;;;5015569;28;20500;-82
2022/12/24 08:07:37;;;;;;;3.40;3.00;;;20.30;68.70;;;;;;5031928;28;20064;-81
2022/12/24 08:10:03;;;;;;;3.40;2.97;;;20.30;68.50;;;;;;5031458;28;20036;-82
2022/12/24 08:12:29;;;;;;;2.63;2.33;;;20.30;68.60;;;;;;5031950;28;20029;-81
2022/12/24 08:14:55;;;;;;;4.13;3.10;;;20.30;68.50;;;;;;5015682;28;20039;-82
2022/12/24 08:17:20;;;;;;;5.95;3.05;;;20.30;68.50;;;;;;5033421;28;20448;-81
2022/12/24 08:19:46;;;;;;;3.15;2.38;;;20.30;68.30;;;;;;5032349;28;20033;-81
2022/12/24 08:22:11;;;;;;;3.53;2.72;;;20.30;68.30;;;;;;5031820;28;20040;-81
2022/12/24 08:24:37;;;;;;;2.72;2.20;;;20.30;68.30;;;;;;5032758;28;20392;-82
2022/12/24 08:27:03;;;;;;;2.88;2.42;;;20.30;68.10;;;;;;5033366;28;20484;-81
2022/12/24 08:29:28;;;;;;;4.28;2.25;;;20.20;68.10;;;;;;5015597;28;20021;-77
2022/12/24 08:31:54;;;;;;;13.27;4.00;;;20.20;68.00;;;;;;5032127;28;20029;-74
2022/12/24 08:34:20;;;;;;;12.27;3.92;;;20.20;68.30;;;;;;5032574;28;20506;-74
2022/12/24 08:36:45;;;;;;;14.27;4.35;;;20.30;68.60;;;;;;5029494;28;20441;-74
2022/12/24 08:39:11;;;;;;;18.65;4.57;;;20.20;68.60;;;;;;5031582;28;20545;-74
2022/12/24 08:41:36;;;;;;;17.75;4.57;;;20.20;68.90;;;;;;5030670;28;20601;-74
2022/12/24 08:44:02;;;;;;;17.35;4.72;;;20.20;69.00;;;;;;5031019;28;20143;-74
2022/12/24 08:46:28;;;;;;;17.52;4.53;;;20.20;69.10;;;;;;5030569;28;20017;-74
2022/12/24 08:48:54;;;;;;;12.02;3.78;;;20.20;69.30;;;;;;5014175;28;20079;-74
2022/12/24 08:51:19;;;;;;;16.73;4.43;;;20.20;69.40;;;;;;5032228;28;20053;-74
2022/12/24 08:53:45;;;;;;;15.95;4.47;;;20.20;69.50;;;;;;5032667;28;20470;-74
2022/12/24 08:56:11;;;;;;;14.93;4.75;;;20.10;69.60;;;;;;5032294;28;20021;-74
2022/12/24 08:58:37;;;;;;;16.45;4.50;;;20.20;69.70;;;;;;5031309;28;20476;-74
2022/12/24 09:01:11;;;;;;;14.38;4.70;;;20.10;69.60;;;;;;5031152;28;20045;-74
2022/12/24 09:03:37;;;;;;;14.52;4.72;;;20.10;69.70;;;;;;5030984;28;20113;-74
2022/12/24 09:06:04;;;;;;;14.40;4.57;;;20.10;69.70;;;;;;5032320;28;20112;-74
2022/12/24 09:08:30;;;;;;;13.27;4.63;;;20.10;69.80;;;;;;5032150;28;20546;-74
2022/12/24 09:10:55;;;;;;;14.57;4.68;;;20.00;69.80;;;;;;5030963;28;20013;-74
2022/12/24 09:13:21;;;;;;;13.93;4.45;;;20.00;69.70;;;;;;5030956;28;20514;-74
2022/12/24 09:15:54;;;;;;;12.70;4.18;;;20.00;69.80;;;;;;5021500;28;20033;-74
2022/12/24 09:18:19;;;;;;;13.80;4.03;;;20.00;69.70;;;;;;5011117;28;20511;-74
2022/12/24 09:20:45;;;;;;;12.48;4.07;;;20.00;69.70;;;;;;5011278;28;20030;-74
2022/12/24 09:23:10;;;;;;;12.10;4.13;;;20.00;69.70;;;;;;5011283;28;20030;-74
2022/12/24 09:25:41;;;;;;;11.23;4.28;;;20.00;69.70;;;;;;5012192;28;20019;-74
2022/12/24 09:28:06;;;;;;;10.55;4.07;;;19.90;69.70;;;;;;5011316;28;20022;-74
2022/12/24 09:30:32;;;;;;;11.95;3.95;;;19.90;69.70;;;;;;5011135;28;20026;-74
2022/12/24 09:32:57;;;;;;;10.82;3.80;;;19.90;69.70;;;;;;5012368;28;20031;-74
2022/12/24 09:35:23;;;;;;;11.88;4.18;;;19.80;69.60;;;;;;5013680;28;20033;-74
2022/12/24 09:38:01;;;;;;;11.77;3.80;;;19.80;69.60;;;;;;5015319;28;20404;-74
2022/12/24 09:40:32;;;;;;;13.00;4.50;;;19.80;69.50;;;;;;5016197;28;20531;-74
2022/12/24 09:42:58;;;;;;;8.23;3.63;;;19.80;69.50;;;;;;5014965;28;20160;-74
2022/12/24 09:45:50;;;;;;;8.80;3.85;;;19.80;69.50;;;;;;5014827;28;20457;-74
2022/12/24 09:48:17;;;;;;;10.85;3.42;;;19.80;69.40;;;;;;5012374;28;20056;-74
2022/12/24 09:51:02;;;;;;;6.88;3.58;;;19.70;69.30;;;;;;5015036;28;20496;-74
2022/12/24 09:54:04;;;;;;;12.05;3.47;;;19.70;69.30;;;;;;5014786;28;20022;-74
2022/12/24 09:56:30;;;;;;;9.25;3.53;;;19.70;69.20;;;;;;5015004;28;20057;-74
2022/12/24 09:59:03;;;;;;;10.38;3.78;;;19.70;69.20;;;;;;5014744;28;20374;-74
2022/12/24 10:01:30;;;;;;;10.95;3.80;;;19.60;69.20;;;;;;5014303;28;20053;-74
2022/12/24 10:04:04;;;;;;;7.03;3.13;;;19.60;69.10;;;;;;5014675;28;20109;-74
2022/12/24 10:06:38;;;;;;;7.85;2.90;;;19.60;69.10;;;;;;5014440;28;20385;-74
2022/12/24 10:09:10;;;;;;;10.65;3.28;;;19.60;69.00;;;;;;5014743;28;20018;-74
2022/12/24 10:11:47;;;;;;;6.65;2.67;;;19.60;69.00;;;;;;5014635;28;20014;-74
2022/12/24 10:14:47;;;;;;;7.22;3.30;;;19.50;69.00;;;;;;5015873;28;20072;-74
2022/12/24 10:17:34;;;;;;;11.07;3.58;;;19.60;69.00;;;;;;5020196;28;20030;-73
2022/12/24 10:20:30;;;;;;;11.35;3.67;;;19.50;69.00;;;;;;5030146;28;20521;-72
2022/12/24 10:23:12;;;;;;;7.03;3.63;;;19.50;69.00;;;;;;5035272;28;20076;-71
2022/12/24 10:25:56;;;;;;;;;;;19.50;68.90;;;;;;5034849;28;20076;-71
2022/12/24 10:28:53;;;;;;;8.00;3.40;;;19.50;68.90;;;;;;5035597;28;20367;-72
2022/12/24 10:31:24;;;;;;;10.25;3.22;;;19.40;68.70;;;;;;5033769;28;20029;-72
2022/12/24 10:33:53;;;;;;;9.30;3.22;;;19.40;68.70;;;;;;5015411;28;20037;-71
2022/12/24 10:36:22;;;;;;;7.97;3.38;;;19.40;68.70;;;;;;5016255;28;20029;-71
2022/12/24 10:38:48;;;;;;;8.80;2.88;;;19.50;68.20;;;;;;5030563;28;20033;-72
2022/12/24 10:41:13;;;;;;;7.75;3.08;;;19.60;67.80;;;;;;5034051;28;20030;-71
2022/12/24 10:43:41;;;;;;;8.68;2.90;;;19.60;67.50;;;;;;5022898;28;20036;-71
2022/12/24 10:46:16;;;;;;;6.35;3.00;;;19.70;67.40;;;;;;5053426;28;20044;-72
2022/12/24 10:48:57;;;;;;;6.72;2.90;;;19.70;67.20;;;;;;5054264;28;20036;-71
2022/12/24 10:51:41;;;;;;;6.78;2.78;;;19.80;67.10;;;;;;5054060;28;20021;-72
2022/12/24 10:54:15;;;;;;;5.53;2.53;;;19.80;67.10;;;;;;5034601;28;20069;-71
2022/12/24 10:56:43;;;;;;;5.35;2.60;;;19.80;66.90;;;;;;5034012;28;20172;-71
2022/12/24 10:59:28;;;;;;;5.70;2.78;;;19.80;66.70;;;;;;5033749;28;20105;-71
2022/12/24 11:01:57;;;;;;;7.55;2.72;;;19.90;66.60;;;;;;5033729;28;20056;-71
2022/12/24 11:04:29;;;;;;;6.00;2.50;;;19.90;66.50;;;;;;5033999;28;20033;-71
2022/12/24 11:06:58;;;;;;;4.57;2.35;;;19.90;66.30;;;;;;5033564;28;20048;-71
2022/12/24 11:09:27;;;;;;;5.97;2.80;;;20.00;66.20;;;;;;5040404;28;20017;-71
2022/12/24 11:11:53;;;;;;;5.45;2.17;;;20.00;66.20;;;;;;5037011;28;20345;-71
2022/12/24 11:14:19;;;;;;;5.32;2.40;;;20.00;66.20;;;;;;5053442;28;20072;-71
2022/12/24 11:16:49;;;;;;;5.30;2.70;;;20.00;66.10;;;;;;5034689;28;20096;-71
2022/12/24 11:19:17;;;;;;;3.88;2.15;;;20.00;66.00;;;;;;5032852;28;20025;-72
2022/12/24 11:21:43;;;;;;;7.35;2.28;;;20.00;65.80;;;;;;5016496;28;20025;-71
2022/12/24 11:24:26;;;;;;;4.47;2.70;;;20.10;65.90;;;;;;5017101;28;20472;-71
2022/12/24 11:26:52;;;;;;;4.05;2.15;;;20.10;65.80;;;;;;5033472;28;20479;-71
2022/12/24 11:29:25;;;;;;;4.35;2.40;;;20.10;65.70;;;;;;5016839;28;20112;-72
2022/12/24 11:31:51;;;;;;;4.00;2.30;;;20.10;65.70;;;;;;5017294;28;20022;-71
2022/12/24 11:34:31;;;;;;;5.38;2.40;;;20.10;65.50;;;;;;5016865;28;20039;-71
2022/12/24 11:37:14;;;;;;;4.15;2.15;;;20.20;65.50;;;;;;5033066;28;20021;-72
2022/12/24 11:39:40;;;;;;;3.50;1.98;;;20.20;65.50;;;;;;5017576;28;20021;-71
2022/12/24 11:42:06;;;;;;;3.97;1.95;;;20.20;65.40;;;;;;5016699;28;20484;-71
2022/12/24 11:44:32;;;;;;;4.25;2.33;;;20.20;65.40;;;;;;5031385;28;20089;-72
2022/12/24 11:46:57;;;;;;;6.60;2.20;;;20.20;65.40;;;;;;5053187;28;20017;-71
2022/12/24 11:49:28;;;;;;;4.97;1.92;;;20.20;65.30;;;;;;5052854;28;20032;-71
2022/12/24 11:52:09;;;;;;;3.35;2.00;;;20.20;65.20;;;;;;5052715;28;20386;-71
2022/12/24 11:55:07;;;;;;;3.42;2.15;;;20.20;65.10;;;;;;5054208;28;20032;-71
2022/12/24 11:57:57;;;;;;;4.15;1.80;;;20.20;65.10;;;;;;5052733;28;20373;-71
2022/12/24 12:00:23;;;;;;;3.47;1.88;;;20.20;65.00;;;;;;5032550;28;20124;-71
2022/12/24 12:02:50;;;;;;;4.55;2.15;;;20.20;65.00;;;;;;5032693;28;20022;-72
2022/12/24 12:05:18;;;;;;;3.90;1.80;;;20.20;64.90;;;;;;5032500;28;20100;-72
2022/12/24 12:07:46;;;;;;;3.72;1.70;;;20.20;65.00;;;;;;5032562;28;20086;-72
2022/12/24 12:10:16;;;;;;;4.95;2.03;;;20.20;64.90;;;;;;5032673;28;20104;-72
2022/12/24 12:12:45;;;;;;;2.70;1.67;;;20.30;65.00;;;;;;5032527;28;20037;-72
2022/12/24 12:15:24;;;;;;;3.47;1.95;;;20.20;64.80;;;;;;5016330;28;20025;-72
2022/12/24 12:18:08;;;;;;;3.92;1.90;;;20.20;64.80;;;;;;5032256;28;20072;-71
2022/12/24 12:20:39;;;;;;;3.42;1.60;;;20.20;64.80;;;;;;5032741;28;20029;-71
2022/12/24 12:23:14;;;;;;;3.23;1.90;;;20.20;64.80;;;;;;5016873;28;20021;-72
2022/12/24 12:25:58;;;;;;;5.80;1.90;;;20.30;64.80;;;;;;5033456;28;20045;-70
2022/12/24 12:28:25;;;;;;;5.05;1.65;;;20.20;64.70;;;;;;5032363;28;20021;-71
2022/12/24 12:31:03;;;;;;;5.22;1.92;;;20.30;64.60;;;;;;5032145;28;20020;-70
2022/12/24 12:33:42;;;;;;;3.00;1.83;;;20.30;64.60;;;;;;5032893;28;20021;-71
2022/12/24 12:36:09;;;;;;;3.83;1.70;;;20.30;64.60;;;;;;5031320;28;20112;-71
2022/12/24 12:38:35;;;;;;;2.88;1.70;;;20.30;64.60;;;;;;5015944;28;20025;-72
2022/12/24 12:41:01;;;;;;;3.17;1.75;;;20.30;64.60;;;;;;5015773;28;20021;-72
2022/12/24 12:43:59;;;;;;;3.53;1.70;;;20.30;64.60;;;;;;5039006;28;20031;-71
2022/12/24 12:46:53;;;;;;;3.38;1.77;;;20.30;64.60;;;;;;5052269;28;20494;-71
2022/12/24 12:49:26;;;;;;;2.92;1.50;;;20.20;64.60;;;;;;4994429;28;20149;-71
2022/12/24 12:52:33;;;;;;;1.90;1.45;;;20.30;64.50;;;;;;4995310;28;20029;-71
2022/12/24 12:55:15;;;;;;;3.22;1.73;;;20.30;64.50;;;;;;4971831;28;20043;-71
2022/12/24 12:57:41;;;;;;;2.13;1.50;;;20.20;64.40;;;;;;4956480;28;20075;-71